Time;durP1;ratioP1;P1;durP2;ratioP2;P2;SDS_P1;SDS_P2;PMS_P1;PMS_P2;Temp;Humidity;BMP_temperature;BMP_pressure;BME280_temperature;BME280_humidity;BME280_pressure;Samples;Min_cycle;Max_cycle;Signal;HPM_P1;HPM_P2
2021/10/29 00:01:20;;;;;;;0.30;0.30;;;7.10;99.90;;;;;;5016294;28;20199;-67
2021/10/29 00:03:45;;;;;;;0.40;0.40;;;7.20;99.90;;;;;;5017515;28;20406;-68
2021/10/29 00:06:11;;;;;;;0.30;0.30;;;7.20;99.90;;;;;;5017374;28;20202;-68
2021/10/29 00:08:37;;;;;;;0.30;0.30;;;7.20;99.90;;;;;;5016333;28;20790;-68
2021/10/29 00:11:03;;;;;;;0.30;0.30;;;7.20;99.90;;;;;;5017704;28;20210;-68
2021/10/29 00:13:29;;;;;;;2.30;2.20;;;7.20;99.90;;;;;;5017350;28;20176;-68
2021/10/29 00:15:54;;;;;;;0.30;0.30;;;7.20;99.90;;;;;;5017116;28;20853;-67
2021/10/29 00:18:20;;;;;;;0.40;0.40;;;7.20;99.90;;;;;;5017449;28;20231;-68
2021/10/29 00:20:46;;;;;;;0.30;0.30;;;7.20;99.90;;;;;;5017352;28;20175;-67
2021/10/29 00:23:12;;;;;;;0.30;0.30;;;7.20;99.70;;;;;;5017115;28;20171;-67
2021/10/29 00:25:37;;;;;;;0.30;0.30;;;7.20;99.60;;;;;;5017108;28;20310;-68
2021/10/29 00:28:03;;;;;;;0.30;0.30;;;7.10;99.70;;;;;;5017476;28;20214;-68
2021/10/29 00:30:29;;;;;;;0.40;0.40;;;7.10;99.90;;;;;;5017144;28;20231;-68
2021/10/29 00:32:55;;;;;;;0.30;0.30;;;7.10;99.90;;;;;;5016917;28;20467;-67
2021/10/29 00:35:20;;;;;;;0.30;0.30;;;7.10;99.80;;;;;;5016950;28;20410;-68
2021/10/29 00:37:46;;;;;;;0.30;0.30;;;7.10;99.90;;;;;;5016840;28;20713;-68
2021/10/29 00:40:13;;;;;;;0.30;0.30;;;7.00;99.90;;;;;;5016876;28;20648;-68
2021/10/29 00:42:40;;;;;;;0.30;0.30;;;6.90;99.90;;;;;;5016834;28;20192;-69
2021/10/29 00:45:06;;;;;;;0.30;0.30;;;6.90;99.90;;;;;;5016713;28;20479;-68
2021/10/29 00:47:32;;;;;;;0.30;0.30;;;6.90;99.90;;;;;;5016847;28;20175;-67
2021/10/29 00:49:58;;;;;;;0.30;0.30;;;6.90;99.90;;;;;;5016681;28;20274;-69
2021/10/29 00:52:24;;;;;;;0.40;0.40;;;6.90;99.90;;;;;;5016780;28;20452;-68
2021/10/29 00:54:50;;;;;;;0.38;0.38;;;6.90;99.90;;;;;;5016436;28;20172;-68
2021/10/29 00:57:16;;;;;;;0.30;0.30;;;6.90;99.90;;;;;;5016864;28;20212;-66
2021/10/29 00:59:41;;;;;;;0.30;0.30;;;7.00;99.90;;;;;;5016461;28;20398;-69
2021/10/29 01:02:07;;;;;;;0.30;0.30;;;7.00;99.90;;;;;;5016030;28;20194;-68
2021/10/29 01:04:33;;;;;;;0.30;0.30;;;7.00;99.90;;;;;;5016409;28;20322;-68
2021/10/29 01:06:59;;;;;;;0.30;0.30;;;7.00;99.70;;;;;;5016327;28;20279;-68
2021/10/29 01:09:25;;;;;;;0.40;0.40;;;7.00;99.60;;;;;;5016294;28;20182;-68
2021/10/29 01:11:50;;;;;;;0.40;0.40;;;6.90;99.60;;;;;;5016363;28;20278;-68
2021/10/29 01:14:16;;;;;;;0.30;0.30;;;6.90;99.70;;;;;;5016423;28;20175;-67
2021/10/29 01:16:42;;;;;;;0.33;0.33;;;6.80;99.70;;;;;;5016110;28;20199;-68
2021/10/29 01:19:08;;;;;;;0.37;0.37;;;6.80;99.90;;;;;;5016071;28;20199;-69
2021/10/29 01:21:34;;;;;;;0.30;0.30;;;6.70;99.90;;;;;;5016189;28;20250;-67
2021/10/29 01:24:00;;;;;;;0.40;0.40;;;6.70;99.90;;;;;;5016007;28;20187;-68
2021/10/29 01:26:26;;;;;;;0.30;0.30;;;6.70;99.90;;;;;;5015889;28;20175;-68
2021/10/29 01:28:51;;;;;;;0.70;0.70;;;6.60;99.90;;;;;;5016012;28;20195;-68
2021/10/29 01:31:17;;;;;;;0.40;0.40;;;6.80;99.90;;;;;;5015884;28;20958;-68
2021/10/29 01:33:43;;;;;;;0.30;0.30;;;6.70;99.90;;;;;;5014584;28;20207;-68
2021/10/29 01:36:10;;;;;;;0.30;0.30;;;6.60;99.90;;;;;;5015649;28;20223;-67
2021/10/29 01:38:42;;;;;;;0.73;0.73;;;6.70;99.90;;;;;;5016364;28;20494;-68
2021/10/29 01:41:09;;;;;;;0.30;0.30;;;6.70;99.90;;;;;;5015665;28;20195;-68
2021/10/29 01:43:48;;;;;;;0.30;0.30;;;6.70;99.90;;;;;;5015772;28;20169;-67
2021/10/29 01:46:14;;;;;;;0.30;0.30;;;6.50;99.90;;;;;;5015578;28;20253;-67
2021/10/29 01:48:41;;;;;;;0.35;0.35;;;6.30;99.90;;;;;;5015553;28;20184;-67
2021/10/29 01:51:07;;;;;;;0.30;0.30;;;6.40;99.90;;;;;;5015358;28;20211;-67
2021/10/29 01:53:33;;;;;;;0.40;0.40;;;6.40;99.90;;;;;;5015499;28;20579;-69
2021/10/29 01:55:59;;;;;;;0.37;0.37;;;6.40;99.90;;;;;;5015263;28;20446;-69
2021/10/29 01:58:24;;;;;;;0.40;0.40;;;6.50;99.90;;;;;;5015624;28;20297;-68
2021/10/29 02:00:50;;;;;;;0.50;0.50;;;6.40;99.80;;;;;;5015396;28;20759;-68
2021/10/29 02:03:16;;;;;;;0.40;0.40;;;6.30;99.90;;;;;;5013959;28;20172;-68
2021/10/29 02:05:43;;;;;;;0.40;0.40;;;6.30;99.90;;;;;;5015076;28;20172;-68
2021/10/29 02:08:09;;;;;;;0.30;0.30;;;6.30;99.90;;;;;;5015425;28;20167;-68
2021/10/29 02:10:35;;;;;;;0.40;0.40;;;6.40;99.90;;;;;;5015274;28;20167;-69
2021/10/29 02:13:01;;;;;;;0.30;0.30;;;6.40;99.90;;;;;;5014026;28;20453;-68
2021/10/29 02:15:27;;;;;;;0.30;0.30;;;6.40;99.90;;;;;;5014991;28;20546;-67
2021/10/29 02:17:52;;;;;;;0.30;0.30;;;6.40;99.90;;;;;;5015104;28;20203;-68
2021/10/29 02:20:18;;;;;;;0.40;0.40;;;6.40;99.90;;;;;;5014945;28;20195;-67
2021/10/29 02:22:44;;;;;;;0.30;0.30;;;6.40;99.90;;;;;;5014885;28;20609;-68
2021/10/29 02:25:09;;;;;;;0.30;0.30;;;6.40;99.90;;;;;;5014832;28;20680;-68
2021/10/29 02:27:35;;;;;;;0.40;0.40;;;6.40;99.90;;;;;;5013690;28;20176;-69
2021/10/29 02:30:00;;;;;;;0.30;0.30;;;6.40;99.90;;;;;;5015412;28;20167;-68
2021/10/29 02:32:26;;;;;;;0.30;0.30;;;6.40;99.90;;;;;;5014907;28;20195;-68
2021/10/29 02:34:52;;;;;;;1.73;1.63;;;6.50;99.90;;;;;;5014537;28;20646;-68
2021/10/29 02:37:17;;;;;;;0.40;0.40;;;6.40;99.90;;;;;;5014540;28;20282;-68
2021/10/29 02:39:43;;;;;;;0.30;0.30;;;6.30;99.90;;;;;;5014746;28;20171;-68
2021/10/29 02:42:09;;;;;;;0.30;0.30;;;6.30;99.90;;;;;;5014853;28;20191;-69
2021/10/29 02:44:36;;;;;;;0.30;0.30;;;6.40;99.90;;;;;;5014649;28;20574;-67
2021/10/29 02:47:02;;;;;;;0.30;0.30;;;6.40;99.90;;;;;;5014288;28;20266;-68
2021/10/29 02:49:28;;;;;;;0.30;0.30;;;6.30;99.90;;;;;;5014288;28;20187;-67
2021/10/29 02:51:54;;;;;;;0.40;0.40;;;6.30;99.90;;;;;;5014698;28;20199;-67
2021/10/29 02:54:19;;;;;;;0.40;0.40;;;6.30;99.90;;;;;;5014953;28;20410;-68
2021/10/29 02:56:45;;;;;;;0.30;0.30;;;6.20;99.90;;;;;;5014287;28;20223;-68
2021/10/29 02:59:11;;;;;;;0.50;0.50;;;6.20;99.90;;;;;;5014536;28;20637;-68
2021/10/29 03:01:37;;;;;;;0.30;0.30;;;6.20;99.90;;;;;;5014395;28;20985;-67
2021/10/29 03:04:03;;;;;;;0.38;0.38;;;6.20;99.90;;;;;;5014212;28;20168;-67
2021/10/29 03:06:29;;;;;;;0.30;0.30;;;6.10;99.90;;;;;;5014048;28;20183;-68
2021/10/29 03:08:54;;;;;;;0.30;0.30;;;6.10;99.90;;;;;;5014449;28;20179;-68
2021/10/29 03:11:20;;;;;;;0.30;0.30;;;6.00;99.90;;;;;;5014121;28;20203;-68
2021/10/29 03:13:46;;;;;;;0.40;0.40;;;6.10;99.90;;;;;;5014060;28;20825;-67
2021/10/29 03:16:11;;;;;;;0.40;0.40;;;6.10;99.90;;;;;;5013834;28;20300;-68
2021/10/29 03:18:37;;;;;;;0.33;0.33;;;6.10;99.90;;;;;;5014424;28;20211;-68
2021/10/29 03:21:03;;;;;;;0.30;0.30;;;6.10;99.90;;;;;;5013918;28;20234;-68
2021/10/29 03:23:29;;;;;;;0.40;0.40;;;6.10;99.90;;;;;;5013670;28;20179;-67
2021/10/29 03:25:54;;;;;;;0.40;0.40;;;6.10;99.90;;;;;;5013524;28;20176;-67
2021/10/29 03:28:20;;;;;;;0.30;0.30;;;6.10;99.90;;;;;;5014071;28;20765;-68
2021/10/29 03:30:46;;;;;;;0.30;0.30;;;6.10;99.90;;;;;;5013960;28;20217;-67
2021/10/29 03:33:12;;;;;;;0.40;0.40;;;6.10;99.90;;;;;;5013823;28;20418;-67
2021/10/29 03:35:38;;;;;;;0.40;0.40;;;6.10;99.90;;;;;;5013809;28;20210;-67
2021/10/29 03:45:36;;;;;;;0.30;0.30;;;6.00;99.90;;;;;;5013906;28;20251;-67
2021/10/29 03:48:03;;;;;;;0.30;0.30;;;6.00;99.90;;;;;;5013852;28;20194;-67
2021/10/29 03:50:32;;;;;;;0.40;0.40;;;6.10;99.90;;;;;;5013532;28;20191;-68
2021/10/29 03:55:39;;;;;;;0.40;0.40;;;6.00;99.90;;;;;;5013463;28;20229;-68
2021/10/29 03:58:05;;;;;;;0.30;0.30;;;6.00;99.90;;;;;;5013556;28;20198;-69
2021/10/29 04:00:32;;;;;;;0.40;0.40;;;6.10;99.90;;;;;;5013755;28;20168;-68
2021/10/29 04:03:02;;;;;;;0.30;0.30;;;6.10;99.90;;;;;;5013487;28;20188;-67
2021/10/29 04:05:33;;;;;;;0.30;0.30;;;6.10;99.90;;;;;;5012482;28;20171;-68
2021/10/29 04:07:59;;;;;;;0.40;0.40;;;6.20;99.90;;;;;;5013756;28;20199;-67
2021/10/29 04:10:28;;;;;;;0.30;0.30;;;6.20;99.90;;;;;;5013576;28;20167;-67
2021/10/29 04:12:56;;;;;;;0.30;0.30;;;6.30;99.90;;;;;;5013385;28;20199;-68
2021/10/29 04:15:21;;;;;;;0.30;0.30;;;6.30;99.90;;;;;;5013472;28;20588;-69
2021/10/29 04:17:47;;;;;;;0.30;0.30;;;6.40;99.90;;;;;;5013388;28;20207;-68
2021/10/29 04:20:13;;;;;;;0.37;0.37;;;6.50;99.90;;;;;;5013567;28;20449;-68
2021/10/29 04:22:39;;;;;;;0.30;0.30;;;6.50;99.90;;;;;;5013410;28;20425;-67
2021/10/29 04:25:05;;;;;;;0.40;0.40;;;6.60;99.90;;;;;;5013108;28;20548;-67
2021/10/29 04:27:33;;;;;;;0.40;0.40;;;6.50;99.90;;;;;;5013702;28;20246;-68
2021/10/29 04:30:00;;;;;;;0.32;0.32;;;6.60;99.90;;;;;;5013347;28;20246;-68
2021/10/29 04:32:26;;;;;;;0.40;0.40;;;6.60;99.90;;;;;;5013217;28;20230;-67
2021/10/29 04:34:52;;;;;;;0.30;0.30;;;6.50;99.90;;;;;;5013229;28;20560;-68
2021/10/29 04:37:18;;;;;;;0.30;0.30;;;6.40;99.90;;;;;;5016855;28;20261;-68
2021/10/29 04:39:47;;;;;;;0.40;0.40;;;6.40;99.90;;;;;;5017304;28;20638;-68
2021/10/29 04:42:13;;;;;;;0.40;0.40;;;6.40;99.90;;;;;;5017005;28;20187;-68
2021/10/29 04:44:39;;;;;;;0.30;0.30;;;6.30;99.90;;;;;;5032091;28;20705;-67
2021/10/29 04:47:04;;;;;;;0.30;0.30;;;6.40;99.90;;;;;;5016725;28;20403;-67
2021/10/29 04:49:30;;;;;;;0.30;0.30;;;6.50;99.90;;;;;;5016722;28;20190;-68
2021/10/29 04:51:58;;;;;;;0.40;0.40;;;6.60;99.90;;;;;;5015430;28;20204;-69
2021/10/29 04:54:24;;;;;;;0.30;0.30;;;6.70;99.90;;;;;;5016670;28;20168;-68
2021/10/29 04:56:51;;;;;;;0.30;0.30;;;6.70;99.90;;;;;;5016415;28;20633;-67
2021/10/29 04:59:17;;;;;;;0.30;0.30;;;6.60;99.90;;;;;;5016725;28;20178;-69
2021/10/29 05:01:45;;;;;;;0.40;0.40;;;6.60;99.90;;;;;;5016516;28;20184;-67
2021/10/29 05:04:12;;;;;;;0.30;0.30;;;6.60;99.90;;;;;;5016427;28;20164;-68
2021/10/29 05:06:37;;;;;;;0.77;0.77;;;6.50;99.90;;;;;;5016185;28;20688;-68
2021/10/29 05:09:03;;;;;;;0.30;0.30;;;6.60;99.90;;;;;;5016307;28;20199;-68
2021/10/29 05:11:29;;;;;;;0.40;0.40;;;6.50;99.90;;;;;;5016159;28;20195;-67
2021/10/29 05:13:54;;;;;;;0.30;0.30;;;6.50;99.90;;;;;;5016402;28;20410;-68
2021/10/29 05:16:20;;;;;;;0.30;0.30;;;6.60;99.90;;;;;;5016122;28;20562;-68
2021/10/29 05:18:46;;;;;;;0.40;0.40;;;6.60;99.90;;;;;;5016298;28;20178;-68
2021/10/29 05:21:11;;;;;;;0.30;0.30;;;6.60;99.90;;;;;;5016231;28;20188;-68
2021/10/29 05:23:38;;;;;;;0.40;0.40;;;6.60;99.90;;;;;;5016066;28;20163;-67
2021/10/29 05:26:04;;;;;;;0.40;0.40;;;6.50;99.90;;;;;;5016185;28;20175;-68
2021/10/29 05:28:30;;;;;;;0.40;0.40;;;6.50;99.90;;;;;;5016094;28;20186;-68
2021/10/29 05:30:56;;;;;;;0.32;0.32;;;6.60;99.90;;;;;;5015999;28;20653;-68
2021/10/29 05:33:22;;;;;;;0.30;0.30;;;6.60;99.90;;;;;;5015977;28;20186;-68
2021/10/29 05:35:48;;;;;;;0.30;0.30;;;6.60;99.90;;;;;;5015527;28;20592;-67
2021/10/29 05:38:13;;;;;;;0.30;0.30;;;6.70;99.90;;;;;;5015842;28;20498;-68
2021/10/29 05:40:39;;;;;;;0.40;0.40;;;6.70;99.90;;;;;;5015885;28;20203;-68
2021/10/29 05:43:05;;;;;;;0.33;0.33;;;6.80;99.90;;;;;;5015647;28;20215;-68
2021/10/29 05:45:30;;;;;;;0.30;0.30;;;6.80;99.90;;;;;;5015572;28;20659;-67
2021/10/29 05:48:03;;;;;;;0.30;0.30;;;6.80;99.90;;;;;;5015627;28;20541;-68
2021/10/29 05:50:29;;;;;;;0.30;0.30;;;6.80;99.90;;;;;;5015416;28;20667;-68
2021/10/29 05:52:55;;;;;;;0.30;0.30;;;6.70;99.90;;;;;;5015470;28;20203;-69
2021/10/29 05:55:20;;;;;;;0.40;0.40;;;6.60;99.90;;;;;;5015455;28;20255;-67
2021/10/29 05:57:49;;;;;;;0.37;0.37;;;6.60;99.90;;;;;;5015684;28;20207;-68
2021/10/29 06:00:24;;;;;;;0.30;0.30;;;6.60;99.90;;;;;;5015624;28;20576;-68
2021/10/29 06:02:49;;;;;;;0.40;0.40;;;6.60;99.90;;;;;;5015238;28;20191;-68
2021/10/29 06:05:17;;;;;;;0.30;0.30;;;6.70;99.90;;;;;;5015137;28;20221;-69
2021/10/29 06:07:43;;;;;;;0.30;0.30;;;6.70;99.90;;;;;;5015472;28;20407;-69
2021/10/29 06:10:13;;;;;;;0.30;0.30;;;6.80;99.90;;;;;;5015268;28;20194;-68
2021/10/29 06:12:40;;;;;;;0.40;0.40;;;6.80;99.90;;;;;;5015165;28;20202;-69
2021/10/29 06:15:07;;;;;;;0.30;0.30;;;7.00;99.90;;;;;;5015095;28;20183;-67
2021/10/29 06:17:33;;;;;;;0.30;0.30;;;7.00;99.90;;;;;;5015157;28;20201;-68
2021/10/29 06:20:00;;;;;;;0.38;0.38;;;7.00;99.90;;;;;;5013808;28;20270;-67
2021/10/29 06:22:29;;;;;;;0.30;0.30;;;7.10;99.90;;;;;;5014949;28;20202;-68
2021/10/29 06:24:56;;;;;;;0.30;0.30;;;7.10;99.90;;;;;;5015000;28;20168;-68
2021/10/29 06:29:51;;;;;;;0.30;0.30;;;7.10;99.90;;;;;;5015066;28;20183;-69
2021/10/29 06:32:19;;;;;;;0.30;0.30;;;7.10;99.90;;;;;;5014642;28;20200;-68
2021/10/29 06:34:44;;;;;;;0.40;0.40;;;7.20;99.90;;;;;;5014955;28;20264;-67
2021/10/29 06:37:15;;;;;;;0.40;0.40;;;7.20;99.90;;;;;;5014578;28;20283;-68
2021/10/29 06:39:42;;;;;;;0.30;0.30;;;7.30;99.90;;;;;;5015009;28;20402;-68
2021/10/29 06:42:12;;;;;;;0.40;0.40;;;7.40;99.90;;;;;;5014737;28;20199;-67
2021/10/29 06:45:08;;;;;;;0.30;0.30;;;7.50;99.90;;;;;;5014570;28;20148;-68
2021/10/29 07:01:00;;;;;;;0.30;0.30;;;7.50;99.80;;;;;;5014796;28;20154;-69
2021/10/29 07:04:11;;;;;;;0.30;0.30;;;7.60;99.60;;;;;;5014290;28;20152;-68
2021/10/29 07:41:51;;;;;;;0.30;0.30;;;9.60;99.30;;;;;;5013749;28;20221;-68
2021/10/29 07:44:25;;;;;;;0.30;0.30;;;9.90;98.70;;;;;;5014023;28;20159;-69
2021/10/29 07:46:51;;;;;;;0.30;0.30;;;10.30;97.00;;;;;;5013512;28;20186;-68
2021/10/29 07:49:17;;;;;;;0.30;0.30;;;10.50;96.30;;;;;;5013687;28;20178;-67
2021/10/29 07:51:43;;;;;;;0.30;0.30;;;10.80;96.10;;;;;;5014019;28;20208;-68
2021/10/29 07:54:09;;;;;;;0.30;0.30;;;11.10;96.40;;;;;;5012428;28;20574;-68
2021/10/29 07:56:35;;;;;;;0.47;0.47;;;11.50;96.10;;;;;;5013536;28;20199;-67
2021/10/29 07:59:01;;;;;;;0.30;0.30;;;12.10;94.80;;;;;;5013521;28;20417;-67
2021/10/29 08:01:27;;;;;;;0.30;0.30;;;12.60;93.10;;;;;;5013437;28;20435;-68
2021/10/29 08:03:52;;;;;;;0.30;0.30;;;13.10;92.30;;;;;;5013542;28;20171;-68
2021/10/29 08:06:18;;;;;;;0.30;0.30;;;13.40;91.60;;;;;;5013501;28;20655;-68
2021/10/29 08:08:45;;;;;;;0.30;0.30;;;13.50;91.40;;;;;;5012290;28;20182;-68
2021/10/29 08:11:11;;;;;;;0.30;0.30;;;13.50;91.20;;;;;;5015353;28;20186;-68
2021/10/29 08:13:37;;;;;;;0.30;0.30;;;13.30;91.30;;;;;;5017511;28;20172;-68
2021/10/29 08:16:04;;;;;;;0.30;0.30;;;13.30;91.60;;;;;;5017147;28;20551;-68
2021/10/29 08:18:32;;;;;;;0.45;0.45;;;13.30;91.60;;;;;;5017793;28;20168;-66
2021/10/29 08:20:59;;;;;;;0.30;0.30;;;13.30;92.00;;;;;;5017417;28;20175;-67
2021/10/29 08:23:24;;;;;;;0.30;0.30;;;13.40;92.10;;;;;;5017262;28;20178;-68
2021/10/29 08:25:51;;;;;;;1.67;1.67;;;13.70;91.70;;;;;;5017065;28;20779;-68
2021/10/29 08:28:16;;;;;;;0.30;0.30;;;14.00;90.50;;;;;;5016055;28;20638;-68
2021/10/29 08:30:42;;;;;;;0.30;0.30;;;14.20;90.60;;;;;;5017204;28;20431;-68
2021/10/29 08:33:08;;;;;;;0.30;0.30;;;14.30;90.60;;;;;;5016996;28;20202;-67
2021/10/29 08:35:33;;;;;;;0.30;0.30;;;14.40;89.50;;;;;;5015658;28;20222;-69
2021/10/29 08:37:59;;;;;;;0.33;0.33;;;14.40;89.90;;;;;;5016990;28;20199;-69
2021/10/29 08:40:25;;;;;;;0.30;0.30;;;14.40;89.40;;;;;;5017058;28;20203;-68
2021/10/29 08:42:52;;;;;;;0.30;0.30;;;14.50;89.30;;;;;;5016845;28;20205;-67
2021/10/29 08:45:18;;;;;;;0.80;0.80;;;14.60;90.40;;;;;;5016819;28;20400;-68
2021/10/29 08:47:45;;;;;;;0.50;0.50;;;14.80;90.90;;;;;;5016733;28;20500;-67
2021/10/29 08:50:16;;;;;;;0.50;0.47;;;15.10;90.10;;;;;;5016676;28;20469;-67
2021/10/29 08:52:44;;;;;;;0.40;0.40;;;15.30;90.10;;;;;;5016807;28;20427;-69
2021/10/29 08:55:10;;;;;;;0.30;0.30;;;15.80;88.50;;;;;;5016586;28;20410;-68
2021/10/29 08:57:36;;;;;;;0.70;0.70;;;16.10;87.10;;;;;;5016724;28;20445;-68
2021/10/29 09:00:12;;;;;;;0.30;0.30;;;16.10;85.10;;;;;;5016744;28;20429;-68
2021/10/29 09:02:48;;;;;;;0.30;0.30;;;16.00;84.50;;;;;;5016504;28;20426;-67
2021/10/29 09:05:22;;;;;;;0.40;0.40;;;15.90;83.50;;;;;;5016504;28;20406;-69
2021/10/29 09:16:46;;;;;;;0.43;0.43;;;15.30;86.00;;;;;;5015985;28;20461;-70
2021/10/29 09:33:01;;;;;;;0.83;0.83;;;13.80;91.30;;;;;;5015952;28;20422;-68
2021/10/29 09:35:29;;;;;;;0.40;0.40;;;13.90;91.30;;;;;;5015859;28;20492;-68
2021/10/29 09:38:04;;;;;;;0.30;0.30;;;13.90;90.90;;;;;;5014529;28;20460;-68
2021/10/29 09:40:39;;;;;;;0.30;0.30;;;14.00;91.20;;;;;;5015903;28;20394;-69
2021/10/29 09:43:18;;;;;;;0.30;0.30;;;14.20;91.40;;;;;;5015760;28;20441;-67
2021/10/29 09:45:56;;;;;;;0.37;0.37;;;14.40;90.70;;;;;;5015680;28;20448;-68
2021/10/29 09:48:30;;;;;;;0.30;0.30;;;14.60;90.60;;;;;;5015922;28;20398;-69
2021/10/29 09:50:56;;;;;;;0.40;0.40;;;14.80;89.40;;;;;;5015620;28;20422;-68
2021/10/29 09:58:52;;;;;;;0.40;0.40;;;15.50;89.80;;;;;;5015490;28;20951;-68
2021/10/29 10:01:22;;;;;;;0.30;0.30;;;16.00;89.40;;;;;;5015502;28;20505;-68
2021/10/29 10:03:50;;;;;;;0.40;0.40;;;16.30;87.70;;;;;;5015522;28;20754;-68
2021/10/29 10:06:21;;;;;;;0.30;0.30;;;16.50;86.70;;;;;;5015301;28;20500;-68
2021/10/29 10:08:46;;;;;;;0.40;0.40;;;16.50;85.00;;;;;;5015435;28;20764;-66
2021/10/29 10:11:14;;;;;;;0.30;0.30;;;16.50;85.30;;;;;;5015555;28;20522;-68
2021/10/29 10:13:41;;;;;;;0.30;0.30;;;16.70;84.30;;;;;;5015188;28;20407;-68
2021/10/29 10:16:08;;;;;;;0.90;0.90;;;17.10;81.30;;;;;;5015023;28;20402;-69
2021/10/29 10:18:34;;;;;;;0.40;0.40;;;17.50;79.10;;;;;;5015155;28;20408;-69
2021/10/29 10:21:05;;;;;;;1.17;1.17;;;18.30;79.60;;;;;;5015127;28;20402;-67
2021/10/29 10:23:36;;;;;;;0.30;0.30;;;19.30;74.30;;;;;;5015251;28;20428;-69
2021/10/29 10:46:18;;;;;;;0.30;0.30;;;20.90;64.80;;;;;;5014485;28;20504;-69
2021/10/29 10:48:52;;;;;;;0.30;0.30;;;20.60;65.50;;;;;;5014593;28;20398;-67
2021/10/29 10:54:39;;;;;;;0.30;0.30;;;20.20;69.60;;;;;;5014898;28;20445;-69
2021/10/29 11:00:05;;;;;;;0.30;0.30;;;19.40;69.00;;;;;;5014659;28;20408;-68
2021/10/29 11:10:23;;;;;;;0.30;0.30;;;18.40;74.40;;;;;;5014328;28;20476;-68
2021/10/29 11:12:49;;;;;;;0.33;0.33;;;18.40;77.30;;;;;;5014213;28;21005;-67
2021/10/29 11:15:22;;;;;;;0.30;0.30;;;18.40;75.60;;;;;;5014066;28;20411;-68
2021/10/29 11:17:59;;;;;;;0.30;0.30;;;18.40;76.60;;;;;;5014016;28;20449;-69
2021/10/29 11:20:51;;;;;;;0.30;0.30;;;18.40;78.60;;;;;;5014137;28;20395;-69
2021/10/29 11:23:35;;;;;;;0.37;0.37;;;18.50;82.50;;;;;;5014057;28;20379;-68
2021/10/29 11:26:07;;;;;;;0.30;0.30;;;18.30;82.70;;;;;;5013938;28;20391;-68
2021/10/29 11:28:37;;;;;;;0.30;0.30;;;18.30;78.90;;;;;;5014113;28;20437;-68
2021/10/29 11:31:08;;;;;;;0.40;0.40;;;18.40;80.10;;;;;;5014085;28;20489;-69
2021/10/29 11:33:42;;;;;;;0.30;0.30;;;18.40;71.40;;;;;;5013854;28;20751;-68
2021/10/29 11:36:14;;;;;;;0.30;0.30;;;18.60;74.90;;;;;;5013678;28;20430;-69
2021/10/29 11:38:46;;;;;;;0.30;0.30;;;18.70;76.30;;;;;;5012540;28;20877;-70
2021/10/29 11:41:21;;;;;;;0.30;0.30;;;18.80;73.40;;;;;;5013761;28;20492;-69
2021/10/29 11:43:48;;;;;;;0.30;0.30;;;18.80;74.70;;;;;;5013838;28;20931;-69
2021/10/29 11:46:15;;;;;;;0.50;0.50;;;18.90;72.20;;;;;;5013396;28;20407;-69
2021/10/29 11:48:45;;;;;;;0.30;0.30;;;18.80;67.20;;;;;;5013873;28;20414;-69
2021/10/29 11:51:14;;;;;;;0.30;0.30;;;18.60;72.00;;;;;;5013555;28;20442;-69
2021/10/29 11:53:49;;;;;;;0.30;0.30;;;18.50;67.50;;;;;;5012391;28;20916;-69
2021/10/29 11:59:21;;;;;;;0.30;0.30;;;18.80;64.50;;;;;;5013847;28;20413;-68
2021/10/29 12:09:50;;;;;;;0.70;0.50;;;18.60;60.10;;;;;;5014049;28;20498;-68
2021/10/29 12:12:20;;;;;;;0.30;0.30;;;18.60;55.30;;;;;;5013635;28;20434;-69
2021/10/29 12:14:50;;;;;;;0.30;0.30;;;18.70;58.50;;;;;;5013518;28;20413;-69
2021/10/29 12:17:24;;;;;;;0.30;0.30;;;18.90;60.70;;;;;;5013506;28;20457;-68
2021/10/29 12:19:57;;;;;;;0.30;0.30;;;19.00;64.00;;;;;;5013510;28;20488;-69
2021/10/29 12:22:35;;;;;;;0.30;0.30;;;19.10;67.40;;;;;;5013370;28;20429;-69
2021/10/29 12:27:38;;;;;;;0.40;0.40;;;18.90;64.80;;;;;;5013840;28;20422;-69
2021/10/29 12:30:28;;;;;;;0.30;0.30;;;18.70;62.40;;;;;;5013640;28;20425;-68
2021/10/29 13:03:08;;;;;;;0.30;0.30;;;16.20;67.00;;;;;;5016840;28;20513;-68
2021/10/29 13:05:37;;;;;;;0.30;0.30;;;16.20;69.80;;;;;;5016502;28;20412;-67
2021/10/29 13:08:19;;;;;;;0.30;0.30;;;16.00;69.20;;;;;;5016612;28;20408;-67
2021/10/29 13:10:45;;;;;;;0.40;0.40;;;15.80;65.60;;;;;;5016621;28;20430;-68
2021/10/29 13:13:18;;;;;;;1.73;1.63;;;15.80;65.20;;;;;;5014989;28;20438;-69
2021/10/29 13:15:45;;;;;;;0.30;0.30;;;15.70;63.70;;;;;;5031499;28;20657;-69
2021/10/29 13:18:16;;;;;;;0.30;0.30;;;15.70;64.60;;;;;;5016338;28;20527;-68
2021/10/29 13:21:07;;;;;;;0.30;0.30;;;15.70;62.80;;;;;;5016460;28;20430;-69
2021/10/29 13:34:13;;;;;;;0.30;0.30;;;15.70;65.10;;;;;;5016547;28;20506;-68
2021/10/29 13:50:55;;;;;;;0.40;0.40;;;15.60;70.70;;;;;;5015655;28;20527;-68
2021/10/29 13:56:10;;;;;;;0.40;0.40;;;15.30;72.70;;;;;;5015607;28;20413;-68
2021/10/29 13:58:55;;;;;;;0.70;0.63;;;15.20;73.30;;;;;;5015413;28;20418;-68
2021/10/29 14:32:58;;;;;;;0.40;0.40;;;14.10;76.50;;;;;;5015086;28;20471;-68
2021/10/29 14:35:27;;;;;;;0.40;0.40;;;14.20;76.60;;;;;;5014790;28;20489;-68
2021/10/29 14:40:37;;;;;;;0.30;0.30;;;14.10;76.60;;;;;;5014809;28;20417;-68
2021/10/29 14:43:17;;;;;;;0.30;0.30;;;14.00;77.60;;;;;;5014750;28;20469;-69
2021/10/29 14:48:34;;;;;;;2.03;1.90;;;13.90;77.30;;;;;;5014657;28;20923;-68
2021/10/29 15:02:03;;;;;;;0.30;0.30;;;13.60;77.20;;;;;;5014342;28;20433;-68
2021/10/29 15:28:19;;;;;;;0.30;0.30;;;13.00;80.70;;;;;;5014216;28;20419;-67
2021/10/29 15:48:55;;;;;;;0.30;0.30;;;12.30;79.70;;;;;;5013732;28;20532;-68
2021/10/29 15:51:21;;;;;;;0.30;0.30;;;12.20;79.60;;;;;;5013620;28;20499;-68
2021/10/29 15:53:47;;;;;;;0.30;0.30;;;12.20;79.80;;;;;;5013563;28;20246;-68
2021/10/29 16:01:51;;;;;;;0.30;0.30;;;11.90;80.20;;;;;;5013756;28;20195;-67
2021/10/29 16:17:50;;;;;;;0.30;0.30;;;11.20;85.80;;;;;;5013620;28;20202;-68
2021/10/29 16:20:16;;;;;;;0.30;0.30;;;11.10;86.40;;;;;;5012210;28;20171;-69
2021/10/29 16:22:42;;;;;;;0.30;0.30;;;11.00;87.60;;;;;;5013464;28;20925;-68
2021/10/29 16:25:11;;;;;;;0.40;0.40;;;10.80;87.70;;;;;;5013362;28;20171;-69
2021/10/29 16:27:50;;;;;;;6.68;2.45;;;10.70;88.80;;;;;;5012071;28;20192;-69
2021/10/29 16:30:16;;;;;;;0.40;0.40;;;10.60;89.20;;;;;;5013362;28;20629;-67
2021/10/29 16:35:23;;;;;;;0.30;0.30;;;10.40;90.10;;;;;;5017161;28;20182;-69
2021/10/29 16:37:49;;;;;;;0.30;0.30;;;10.20;90.30;;;;;;5016928;28;20285;-68
2021/10/29 16:40:15;;;;;;;0.30;0.30;;;10.10;90.70;;;;;;5017150;28;20170;-68
2021/10/29 16:42:42;;;;;;;0.40;0.40;;;10.10;90.40;;;;;;5016794;28;20191;-67
2021/10/29 16:45:09;;;;;;;0.30;0.30;;;10.00;90.70;;;;;;5016720;28;20689;-67
2021/10/29 16:47:35;;;;;;;0.65;0.65;;;9.90;91.40;;;;;;5016854;28;20258;-67
2021/10/29 16:50:03;;;;;;;0.30;0.30;;;9.80;91.60;;;;;;5016694;28;20613;-69
2021/10/29 16:52:29;;;;;;;0.82;0.75;;;9.70;91.50;;;;;;5016824;28;20472;-67
2021/10/29 16:54:55;;;;;;;0.40;0.40;;;9.70;91.80;;;;;;5016520;28;20237;-68
2021/10/29 16:57:21;;;;;;;0.30;0.30;;;9.70;91.70;;;;;;5016530;28;20207;-67
2021/10/29 16:59:46;;;;;;;0.40;0.40;;;9.60;91.20;;;;;;5016669;28;20179;-68
2021/10/29 17:02:12;;;;;;;0.30;0.30;;;9.60;91.30;;;;;;5016527;28;20440;-68
2021/10/29 17:04:38;;;;;;;0.70;0.70;;;9.60;91.20;;;;;;5016615;28;20185;-67
2021/10/29 17:07:05;;;;;;;0.30;0.30;;;9.60;91.60;;;;;;5016390;28;20517;-67
2021/10/29 17:09:31;;;;;;;0.30;0.30;;;9.60;91.80;;;;;;5016544;28;20197;-68
2021/10/29 17:11:56;;;;;;;0.30;0.30;;;9.50;92.10;;;;;;5016385;28;20195;-69
2021/10/29 17:14:23;;;;;;;0.30;0.30;;;9.50;92.30;;;;;;5016615;28;20170;-68
2021/10/29 17:16:49;;;;;;;0.30;0.30;;;9.40;92.30;;;;;;5016156;28;20186;-68
2021/10/29 17:19:14;;;;;;;0.30;0.30;;;9.30;92.60;;;;;;5016513;28;20181;-69
2021/10/29 17:21:40;;;;;;;0.30;0.30;;;9.30;92.70;;;;;;5016320;28;20466;-68
2021/10/29 17:24:06;;;;;;;0.30;0.30;;;9.20;92.90;;;;;;5016156;28;20179;-68
2021/10/29 17:26:34;;;;;;;0.30;0.30;;;9.10;93.10;;;;;;5016023;28;20174;-68
2021/10/29 17:28:59;;;;;;;0.30;0.30;;;8.70;93.00;;;;;;5016143;28;20174;-68
2021/10/29 17:31:25;;;;;;;0.30;0.30;;;8.70;93.50;;;;;;5016045;28;20285;-67
2021/10/29 17:33:50;;;;;;;0.57;0.57;;;8.70;93.60;;;;;;5016012;28;20228;-67
2021/10/29 17:36:17;;;;;;;0.33;0.33;;;8.80;93.60;;;;;;5015763;28;20253;-68
2021/10/29 17:38:44;;;;;;;0.40;0.40;;;8.80;93.60;;;;;;5016149;28;20170;-68
2021/10/29 17:41:10;;;;;;;0.30;0.30;;;8.80;93.60;;;;;;5014534;28;20675;-68
2021/10/29 17:43:35;;;;;;;0.30;0.30;;;8.70;93.70;;;;;;5015628;28;20179;-68
2021/10/29 17:46:02;;;;;;;0.30;0.30;;;8.70;94.00;;;;;;5014424;28;20419;-68
2021/10/29 17:48:28;;;;;;;0.40;0.40;;;8.60;94.20;;;;;;5015940;28;20178;-68
2021/10/29 17:50:53;;;;;;;0.30;0.30;;;8.60;94.40;;;;;;5030793;28;20624;-67
2021/10/29 17:53:20;;;;;;;0.30;0.30;;;8.50;94.60;;;;;;5015632;28;20200;-67
2021/10/29 17:55:45;;;;;;;0.40;0.40;;;8.50;94.70;;;;;;5015469;28;20532;-66
2021/10/29 17:58:11;;;;;;;0.30;0.30;;;8.40;94.60;;;;;;5015562;28;20209;-67
2021/10/29 18:00:37;;;;;;;0.30;0.30;;;8.40;94.60;;;;;;5015725;28;20173;-68
2021/10/29 18:03:04;;;;;;;0.30;0.30;;;8.30;94.50;;;;;;5015408;28;20222;-68